createdAt,value
2022-08-20T00:17:09.764Z,51.5
2022-08-20T00:47:12.075Z,51
2022-08-20T01:21:15.176Z,49.9
2022-08-20T01:53:17.863Z,52.1
2022-08-20T02:27:20.688Z,49.9
2022-08-20T02:57:23.026Z,50.5
2022-08-20T03:28:25.944Z,50.5
2022-08-20T03:58:28.306Z,52.1
2022-08-20T04:38:31.763Z,52.1
2022-08-20T05:10:34.656Z,52.1
2022-08-20T05:45:37.158Z,54.2
2022-08-20T06:15:39.989Z,55.8
2022-08-20T06:45:42.478Z,56.9
2022-08-20T07:15:45.102Z,57.5
2022-08-20T07:47:47.731Z,58.5
2022-08-20T08:17:50.521Z,60.7
2022-08-20T08:47:52.715Z,64.5
2022-08-20T09:17:55.256Z,62.3
2022-08-20T09:47:58.110Z,68.8
2022-08-20T10:18:00.328Z,64.5
2022-08-20T10:48:03.123Z,61.2
2022-08-20T11:18:05.423Z,60.7
2022-08-20T11:48:07.805Z,61.2
2022-08-20T12:18:10.279Z,62.3
2022-08-20T12:49:12.953Z,62.8
2022-08-20T13:22:15.621Z,66.1
2022-08-20T13:53:18.295Z,67.7
2022-08-20T14:23:20.665Z,63.4
2022-08-20T14:54:23.166Z,59.6
2022-08-20T15:24:25.826Z,65
2022-08-20T15:57:28.610Z,63.4
2022-08-20T16:27:31.088Z,58
2022-08-20T16:58:33.853Z,72.5
2022-08-20T17:28:36.216Z,69.3
2022-08-20T18:00:39.038Z,55.3
2022-08-20T18:30:41.325Z,51.5
2022-08-20T19:00:43.713Z,50.5
2022-08-20T19:30:46.225Z,48.3
2022-08-20T20:02:48.955Z,47.8
2022-08-20T20:32:51.787Z,48.3
2022-08-20T21:02:53.898Z,47.8
2022-08-20T21:33:56.606Z,47.2
2022-08-20T22:03:59.158Z,46.7
2022-08-20T22:34:01.887Z,45.6
2022-08-20T23:06:04.146Z,46.2
2022-08-20T23:40:06.817Z,46.2
